createdAt,value
2022-08-31T00:00:30.774Z,99.90
2022-08-31T00:03:16.811Z,99.90
2022-08-31T00:05:46.605Z,99.90
2022-08-31T00:08:14.809Z,99.90
2022-08-31T00:10:46.504Z,99.90
2022-08-31T00:13:15.623Z,99.90
2022-08-31T00:15:46.225Z,99.90
2022-08-31T00:18:14.650Z,99.90
2022-08-31T00:20:43.378Z,99.90
2022-08-31T00:23:14.985Z,99.90
2022-08-31T00:25:45.709Z,99.90
2022-08-31T00:28:14.966Z,99.90
2022-08-31T00:30:43.878Z,99.90
2022-08-31T00:33:12.580Z,99.90
2022-08-31T00:35:44.636Z,99.90
2022-08-31T00:38:14.647Z,99.90
2022-08-31T00:40:46.439Z,99.90
2022-08-31T00:43:30.300Z,99.90
2022-08-31T00:45:58.446Z,99.90
2022-08-31T00:48:26.598Z,99.90
2022-08-31T00:50:55.015Z,99.90
2022-08-31T00:53:25.219Z,99.90
2022-08-31T00:55:53.376Z,99.90
2022-08-31T00:58:22.163Z,99.90
2022-08-31T01:00:50.340Z,99.90
2022-08-31T01:03:19.341Z,99.90
2022-08-31T01:05:47.817Z,99.90
2022-08-31T01:08:18.132Z,99.90
2022-08-31T01:10:51.051Z,99.90
2022-08-31T01:13:19.576Z,99.90
2022-08-31T01:15:54.168Z,99.90
2022-08-31T01:18:24.994Z,99.90
2022-08-31T01:21:01.844Z,99.90
2022-08-31T01:23:35.261Z,99.90
2022-08-31T01:26:05.114Z,99.90
2022-08-31T01:28:33.795Z,99.90
2022-08-31T01:31:04.801Z,99.90
2022-08-31T01:33:35.368Z,99.90
2022-08-31T01:36:04.124Z,99.90
2022-08-31T01:38:35.370Z,99.90
2022-08-31T01:41:04.957Z,99.90
2022-08-31T01:43:34.632Z,99.90
2022-08-31T01:46:05.649Z,99.90
2022-08-31T01:48:41.411Z,99.90
2022-08-31T01:51:12.542Z,99.90
2022-08-31T01:53:45.624Z,99.90
2022-08-31T01:56:20.115Z,99.90
2022-08-31T01:58:48.241Z,99.90
2022-08-31T02:01:32.878Z,99.90
2022-08-31T02:04:03.328Z,99.90
2022-08-31T02:06:32.904Z,99.90
2022-08-31T02:09:02.441Z,99.90
2022-08-31T02:11:30.737Z,99.90
2022-08-31T02:13:58.963Z,99.90
2022-08-31T02:16:27.092Z,99.90
2022-08-31T02:18:55.791Z,99.90
2022-08-31T02:21:24.296Z,99.90
2022-08-31T02:23:52.720Z,99.90
2022-08-31T02:26:23.319Z,99.90
2022-08-31T02:28:51.501Z,99.90
2022-08-31T02:31:20.304Z,99.90
2022-08-31T02:33:48.606Z,99.90
2022-08-31T02:36:16.762Z,99.90
2022-08-31T02:38:45.272Z,99.90
2022-08-31T02:41:13.483Z,99.90
2022-08-31T02:43:43.106Z,99.90
2022-08-31T02:46:11.244Z,99.90
2022-08-31T02:48:39.682Z,99.90
2022-08-31T02:51:09.963Z,99.90
2022-08-31T02:53:39.240Z,99.90
2022-08-31T02:56:08.965Z,99.90
2022-08-31T02:58:38.062Z,99.90
2022-08-31T03:01:08.172Z,99.90
2022-08-31T03:03:37.901Z,99.90
2022-08-31T03:06:06.214Z,99.90
2022-08-31T03:08:34.622Z,99.90
2022-08-31T03:11:04.808Z,99.90
2022-08-31T03:13:32.944Z,99.90
2022-08-31T03:16:01.065Z,99.90
2022-08-31T03:18:30.734Z,99.90
2022-08-31T03:20:58.780Z,99.90
2022-08-31T03:23:26.939Z,99.90
2022-08-31T03:25:55.090Z,99.90
2022-08-31T03:28:23.397Z,99.90
2022-08-31T03:30:51.742Z,99.90
2022-08-31T03:33:20.109Z,99.90
2022-08-31T03:35:51.097Z,99.90
2022-08-31T03:38:20.195Z,99.90
2022-08-31T03:40:50.905Z,99.90
2022-08-31T03:43:21.488Z,99.90
2022-08-31T03:45:49.788Z,99.90
2022-08-31T03:48:18.417Z,99.90
2022-08-31T03:50:46.526Z,99.90
2022-08-31T03:53:22.470Z,99.90
2022-08-31T03:55:51.394Z,99.90
2022-08-31T03:58:19.585Z,99.90
2022-08-31T04:00:47.790Z,99.90
2022-08-31T04:03:15.918Z,99.90
2022-08-31T04:05:45.253Z,99.90
2022-08-31T04:08:13.949Z,99.90
2022-08-31T04:10:44.592Z,99.90
2022-08-31T04:13:12.754Z,99.90
2022-08-31T04:15:42.114Z,99.90
2022-08-31T04:18:10.605Z,99.90
2022-08-31T04:20:40.897Z,99.90
2022-08-31T04:23:09.819Z,99.90
2022-08-31T04:25:41.975Z,99.90
2022-08-31T04:28:11.867Z,99.90
2022-08-31T04:30:41.185Z,99.90
2022-08-31T04:33:09.813Z,99.90
2022-08-31T04:35:41.164Z,99.90
2022-08-31T04:38:10.213Z,99.90
2022-08-31T04:40:39.604Z,99.90
2022-08-31T04:43:08.284Z,99.90
2022-08-31T04:45:42.498Z,99.90
2022-08-31T04:48:14.168Z,99.90
2022-08-31T04:50:44.375Z,99.90
2022-08-31T04:53:12.887Z,99.90
2022-08-31T04:55:42.094Z,99.90
2022-08-31T04:58:11.833Z,99.90
2022-08-31T05:00:43.935Z,99.90
2022-08-31T05:03:12.094Z,99.90
2022-08-31T05:05:40.745Z,99.90
2022-08-31T05:08:12.150Z,99.90
2022-08-31T05:10:41.345Z,99.90
2022-08-31T05:13:09.552Z,99.90
2022-08-31T05:15:43.997Z,99.90
2022-08-31T05:18:12.399Z,99.90
2022-08-31T05:20:41.140Z,99.90
2022-08-31T05:23:10.291Z,99.90
2022-08-31T05:25:40.498Z,99.90
2022-08-31T05:28:09.011Z,99.90
2022-08-31T05:30:37.130Z,99.90
2022-08-31T05:33:06.846Z,99.90
2022-08-31T05:35:36.294Z,99.90
2022-08-31T05:38:04.677Z,99.90
2022-08-31T05:40:32.775Z,99.90
2022-08-31T05:43:01.047Z,99.90
2022-08-31T05:45:29.473Z,99.90
2022-08-31T05:47:57.745Z,99.90
2022-08-31T05:50:27.185Z,99.90
2022-08-31T05:52:55.232Z,99.90
2022-08-31T05:55:23.363Z,99.90
2022-08-31T05:57:52.806Z,99.90
2022-08-31T06:00:21.119Z,99.90
2022-08-31T06:02:53.758Z,99.90
2022-08-31T06:05:22.439Z,99.90
2022-08-31T06:07:52.051Z,99.90
2022-08-31T06:10:20.982Z,99.90
2022-08-31T06:12:49.103Z,99.90
2022-08-31T06:15:17.742Z,99.90
2022-08-31T06:17:45.956Z,99.90
2022-08-31T06:20:17.714Z,99.90
2022-08-31T06:22:46.681Z,99.90
2022-08-31T06:25:17.573Z,99.90
2022-08-31T06:27:49.229Z,99.90
2022-08-31T06:30:19.340Z,99.90
2022-08-31T06:32:47.857Z,99.90
2022-08-31T06:35:16.462Z,99.90
2022-08-31T06:37:45.291Z,99.90
2022-08-31T06:40:14.978Z,99.90
2022-08-31T06:42:45.151Z,99.90
2022-08-31T06:45:13.776Z,99.90
2022-08-31T06:47:41.923Z,99.90
2022-08-31T06:50:12.318Z,99.90
2022-08-31T06:52:40.655Z,99.90
2022-08-31T06:55:10.391Z,99.90
2022-08-31T06:57:39.909Z,99.90
2022-08-31T07:00:09.073Z,99.90
2022-08-31T07:02:37.156Z,99.90
2022-08-31T07:05:05.647Z,99.90
2022-08-31T07:07:33.852Z,99.90
2022-08-31T07:10:01.890Z,99.90
2022-08-31T07:12:30.771Z,99.90
2022-08-31T07:15:00.175Z,99.90
2022-08-31T07:17:29.417Z,99.90
2022-08-31T07:19:57.707Z,99.90
2022-08-31T07:22:25.791Z,99.90
2022-08-31T07:24:53.949Z,99.90
2022-08-31T07:27:22.067Z,99.90
2022-08-31T07:29:50.219Z,99.90
2022-08-31T07:32:19.827Z,99.90
2022-08-31T07:34:53.364Z,99.90
2022-08-31T07:37:42.445Z,99.90
2022-08-31T07:40:28.877Z,99.90
2022-08-31T07:42:57.073Z,99.90
2022-08-31T07:45:29.407Z,99.90
2022-08-31T07:48:03.201Z,99.90
2022-08-31T07:50:31.664Z,99.90
2022-08-31T07:53:00.403Z,99.90
2022-08-31T07:55:30.328Z,99.90
2022-08-31T07:57:59.008Z,99.90
2022-08-31T08:00:29.564Z,99.90
2022-08-31T08:03:07.341Z,99.90
2022-08-31T08:05:41.525Z,99.90
2022-08-31T08:08:13.819Z,99.90
2022-08-31T08:10:52.138Z,99.90
2022-08-31T08:13:22.610Z,99.90
2022-08-31T08:15:52.121Z,99.90
2022-08-31T08:18:21.014Z,99.90
2022-08-31T08:20:52.496Z,99.90
2022-08-31T08:23:28.265Z,99.90
2022-08-31T08:25:59.302Z,99.90
2022-08-31T08:28:39.049Z,99.90
2022-08-31T08:31:12.241Z,99.90
2022-08-31T08:33:40.670Z,99.90
2022-08-31T08:36:10.500Z,99.90
2022-08-31T08:38:43.758Z,99.90
2022-08-31T08:41:14.723Z,99.70
2022-08-31T08:43:52.482Z,99.70
2022-08-31T08:46:36.825Z,99.10
2022-08-31T08:49:16.146Z,99.00
2022-08-31T08:51:47.123Z,99.20
2022-08-31T08:54:22.472Z,99.30
2022-08-31T08:56:50.624Z,99.40
2022-08-31T08:59:20.281Z,99.00
2022-08-31T09:01:52.739Z,98.40
2022-08-31T09:04:41.272Z,97.70
2022-08-31T09:07:23.075Z,98.10
2022-08-31T09:10:02.089Z,97.50
2022-08-31T09:12:42.152Z,96.50
2022-08-31T09:15:36.461Z,96.60
2022-08-31T09:18:16.677Z,95.70
2022-08-31T09:20:44.749Z,96.60
2022-08-31T09:23:15.589Z,97.00
2022-08-31T09:25:52.485Z,97.10
2022-08-31T09:28:35.062Z,97.00
2022-08-31T09:31:04.014Z,96.20
2022-08-31T09:33:35.375Z,95.80
2022-08-31T09:36:17.383Z,95.60
2022-08-31T09:38:48.011Z,94.80
2022-08-31T09:41:31.134Z,94.60
2022-08-31T09:44:22.476Z,93.90
2022-08-31T09:46:53.462Z,93.60
2022-08-31T09:49:24.228Z,93.10
2022-08-31T09:51:52.421Z,93.00
2022-08-31T09:54:46.020Z,92.30
2022-08-31T09:57:15.300Z,91.20
2022-08-31T09:59:46.013Z,90.40
2022-08-31T10:02:31.831Z,90.40
2022-08-31T10:05:03.878Z,90.00
2022-08-31T10:07:41.982Z,90.50
2022-08-31T10:10:27.929Z,90.00
2022-08-31T10:13:03.823Z,89.60
2022-08-31T10:15:39.672Z,88.90
2022-08-31T10:18:14.050Z,88.60
2022-08-31T10:20:48.464Z,86.60
2022-08-31T10:23:22.676Z,86.60
2022-08-31T10:25:58.986Z,86.00
2022-08-31T10:28:36.650Z,84.90
2022-08-31T10:31:09.275Z,85.30
2022-08-31T10:34:01.293Z,84.90
2022-08-31T10:36:33.824Z,84.70
2022-08-31T10:39:02.721Z,84.80
2022-08-31T10:41:38.857Z,84.30
2022-08-31T10:44:18.245Z,84.00
2022-08-31T10:46:49.074Z,84.80
2022-08-31T10:49:17.165Z,85.00
2022-08-31T10:51:55.955Z,85.40
2022-08-31T10:54:33.883Z,85.50
2022-08-31T10:57:21.541Z,85.50
2022-08-31T10:59:57.731Z,86.50
2022-08-31T11:02:46.405Z,87.40
2022-08-31T11:05:32.620Z,88.20
2022-08-31T11:08:22.069Z,87.50
2022-08-31T11:10:51.889Z,87.10
2022-08-31T11:13:49.643Z,87.40
2022-08-31T11:16:33.706Z,88.50
2022-08-31T11:19:38.117Z,87.80
2022-08-31T11:22:34.794Z,85.70
2022-08-31T11:25:48.173Z,86.10
2022-08-31T11:28:29.097Z,86.00
2022-08-31T11:31:01.669Z,85.50
2022-08-31T11:33:31.458Z,84.70
2022-08-31T11:36:07.628Z,83.80
2022-08-31T11:39:11.749Z,84.70
2022-08-31T11:41:46.647Z,82.80
2022-08-31T11:44:46.861Z,84.00
2022-08-31T11:47:35.723Z,84.80
2022-08-31T11:50:10.898Z,85.20
2022-08-31T11:52:45.206Z,87.10
2022-08-31T11:55:22.285Z,87.00
2022-08-31T11:58:20.713Z,86.70
2022-08-31T12:00:54.124Z,87.10
2022-08-31T12:03:43.361Z,88.00
2022-08-31T12:06:34.133Z,88.60
2022-08-31T12:09:21.085Z,89.30
2022-08-31T12:11:59.386Z,90.50
2022-08-31T12:14:36.052Z,90.60
2022-08-31T12:17:17.088Z,90.50
2022-08-31T12:20:02.104Z,90.00
2022-08-31T12:23:15.310Z,89.50
2022-08-31T12:26:09.618Z,87.00
2022-08-31T12:28:54.066Z,87.10
2022-08-31T12:31:22.466Z,87.10
2022-08-31T12:33:58.989Z,88.00
2022-08-31T12:36:30.302Z,86.30
2022-08-31T12:39:13.351Z,85.50
2022-08-31T12:41:44.646Z,85.20
2022-08-31T12:44:14.164Z,85.50
2022-08-31T12:46:58.859Z,85.70
2022-08-31T12:49:53.178Z,85.70
2022-08-31T12:52:38.396Z,85.80
2022-08-31T12:55:28.254Z,86.30
2022-08-31T12:58:17.085Z,86.30
2022-08-31T13:00:46.634Z,85.70
2022-08-31T13:03:21.793Z,85.40
2022-08-31T13:06:10.052Z,85.30
2022-08-31T13:08:42.935Z,85.50
2022-08-31T13:11:22.747Z,85.80
2022-08-31T13:13:51.548Z,85.00
2022-08-31T13:16:21.920Z,84.40
2022-08-31T13:18:58.166Z,84.30
2022-08-31T13:21:29.330Z,85.00
2022-08-31T13:24:07.327Z,86.30
2022-08-31T13:26:38.561Z,86.90
2022-08-31T13:29:10.155Z,87.80
2022-08-31T13:31:49.462Z,88.90
2022-08-31T13:34:19.197Z,89.80
2022-08-31T13:36:53.255Z,88.80
2022-08-31T13:39:27.617Z,90.10
2022-08-31T13:41:58.666Z,90.50
2022-08-31T13:44:33.795Z,90.80
2022-08-31T13:47:05.441Z,91.10
2022-08-31T13:49:37.661Z,92.10
2022-08-31T13:52:13.649Z,92.50
2022-08-31T13:54:43.239Z,92.50
2022-08-31T13:57:20.888Z,93.20
2022-08-31T13:59:49.953Z,93.40
2022-08-31T14:02:37.249Z,93.40
2022-08-31T14:05:08.695Z,93.50
2022-08-31T14:07:56.794Z,94.20
2022-08-31T14:10:28.413Z,94.00
2022-08-31T14:12:59.802Z,94.00
2022-08-31T14:15:38.214Z,93.80
2022-08-31T14:18:27.669Z,95.90
2022-08-31T14:21:21.982Z,97.40
2022-08-31T14:23:52.744Z,98.90
2022-08-31T14:26:26.425Z,99.70
2022-08-31T14:28:57.036Z,99.90
2022-08-31T14:31:27.686Z,99.90
2022-08-31T14:34:09.106Z,99.90
2022-08-31T14:36:44.709Z,99.90
2022-08-31T14:39:13.393Z,99.90
2022-08-31T14:41:43.939Z,99.90
2022-08-31T14:44:13.464Z,99.90
2022-08-31T14:46:43.425Z,99.90
2022-08-31T14:49:11.753Z,99.90
2022-08-31T14:51:40.249Z,99.90
2022-08-31T14:54:09.969Z,99.90
2022-08-31T14:56:46.841Z,99.90
2022-08-31T14:59:19.645Z,99.90
2022-08-31T15:01:50.993Z,99.90
2022-08-31T15:04:21.662Z,99.90
2022-08-31T15:06:55.015Z,99.90
2022-08-31T15:09:23.291Z,99.90
2022-08-31T15:11:51.507Z,99.90
2022-08-31T15:14:21.276Z,99.90
2022-08-31T15:16:50.915Z,99.90
2022-08-31T15:19:19.220Z,99.90
2022-08-31T15:21:52.742Z,99.90
2022-08-31T15:24:31.550Z,99.90
2022-08-31T15:27:00.077Z,99.90
2022-08-31T15:29:30.322Z,99.90
2022-08-31T15:32:00.066Z,99.90
2022-08-31T15:34:30.306Z,99.90
2022-08-31T15:37:01.277Z,99.90
2022-08-31T15:39:32.712Z,99.90
2022-08-31T15:42:02.819Z,99.90
2022-08-31T15:44:33.591Z,99.90
2022-08-31T15:47:21.561Z,99.90
2022-08-31T15:49:51.157Z,99.90
2022-08-31T15:52:20.005Z,99.90
2022-08-31T15:54:50.336Z,99.90
2022-08-31T15:57:18.938Z,99.90
2022-08-31T15:59:48.939Z,99.90
2022-08-31T16:02:20.146Z,99.90
2022-08-31T16:04:50.536Z,99.90
2022-08-31T16:07:22.590Z,99.90
2022-08-31T16:09:50.584Z,99.90
2022-08-31T16:12:20.062Z,99.90
2022-08-31T16:14:51.632Z,99.90
2022-08-31T16:17:22.102Z,99.90
2022-08-31T16:19:52.347Z,99.90
2022-08-31T16:22:22.435Z,99.90
2022-08-31T16:24:57.349Z,99.90
2022-08-31T16:27:25.380Z,99.90
2022-08-31T16:29:54.740Z,99.90
2022-08-31T16:32:22.846Z,99.90
2022-08-31T16:34:51.008Z,99.90
2022-08-31T16:37:19.012Z,99.90
2022-08-31T16:39:47.950Z,99.90
2022-08-31T16:42:16.464Z,99.90
2022-08-31T16:44:46.773Z,99.90
2022-08-31T16:47:18.604Z,99.90
2022-08-31T16:49:45.754Z,99.90
2022-08-31T16:52:18.114Z,99.90
2022-08-31T16:54:49.048Z,99.90
2022-08-31T16:57:20.734Z,99.90
2022-08-31T16:59:50.335Z,99.90
2022-08-31T17:02:21.113Z,99.90
2022-08-31T17:04:54.054Z,99.90
2022-08-31T17:07:24.685Z,99.90
2022-08-31T17:09:56.912Z,99.90
2022-08-31T17:12:27.291Z,99.90
2022-08-31T17:14:55.938Z,99.90
2022-08-31T17:17:27.727Z,99.90
2022-08-31T17:19:56.717Z,99.90
2022-08-31T17:22:31.804Z,99.90
2022-08-31T17:25:03.036Z,99.90
2022-08-31T17:27:33.409Z,99.90
2022-08-31T17:30:05.326Z,99.90
2022-08-31T17:32:39.422Z,99.90
2022-08-31T17:35:15.109Z,99.90
2022-08-31T17:37:43.518Z,99.90
2022-08-31T17:40:14.193Z,99.90
2022-08-31T17:42:42.383Z,99.90
2022-08-31T17:45:11.291Z,99.90
2022-08-31T17:47:41.255Z,99.90
2022-08-31T17:50:10.114Z,99.90
2022-08-31T17:52:38.113Z,99.90
2022-08-31T17:55:07.410Z,99.90
2022-08-31T17:57:35.426Z,99.90
2022-08-31T18:00:05.605Z,99.90
2022-08-31T18:02:34.961Z,99.90
2022-08-31T18:05:09.667Z,99.90
2022-08-31T18:07:41.042Z,99.90
2022-08-31T18:10:10.739Z,99.90
2022-08-31T18:12:41.726Z,99.90
2022-08-31T18:15:11.244Z,99.90
2022-08-31T18:17:39.478Z,99.90
2022-08-31T18:20:11.807Z,99.90
2022-08-31T18:22:40.164Z,99.90
2022-08-31T18:25:08.915Z,99.90
2022-08-31T18:27:36.998Z,99.90
2022-08-31T18:30:05.993Z,99.90
2022-08-31T18:32:36.775Z,99.90
2022-08-31T18:35:14.041Z,99.90
2022-08-31T18:37:44.744Z,99.90
2022-08-31T18:40:30.514Z,99.90
2022-08-31T18:43:15.860Z,99.90
2022-08-31T18:45:49.042Z,99.90
2022-08-31T18:48:26.027Z,99.90
2022-08-31T18:51:03.791Z,99.90
2022-08-31T18:53:34.551Z,99.90
2022-08-31T18:56:08.009Z,99.90
2022-08-31T18:58:36.790Z,99.90
2022-08-31T19:01:10.152Z,99.90
2022-08-31T19:03:39.492Z,99.90
2022-08-31T19:06:08.223Z,99.90
2022-08-31T19:08:37.790Z,99.90
2022-08-31T19:11:08.190Z,99.90
2022-08-31T19:13:36.627Z,99.90
2022-08-31T19:16:14.629Z,99.90
2022-08-31T19:18:44.039Z,99.90
2022-08-31T19:21:14.975Z,99.90
2022-08-31T19:23:44.433Z,99.90
2022-08-31T19:26:19.398Z,99.90
2022-08-31T19:28:48.907Z,99.90
2022-08-31T19:31:18.853Z,99.90
2022-08-31T19:33:46.988Z,99.90
2022-08-31T19:36:15.652Z,99.90
2022-08-31T19:38:45.751Z,99.90
2022-08-31T19:41:18.086Z,99.90
2022-08-31T19:43:53.675Z,99.90
2022-08-31T19:46:27.062Z,99.90
2022-08-31T19:48:59.679Z,99.90
2022-08-31T19:51:29.779Z,99.90
2022-08-31T19:54:00.828Z,99.90
2022-08-31T19:56:31.033Z,99.90
2022-08-31T19:59:00.178Z,99.90
2022-08-31T20:01:32.809Z,99.90
2022-08-31T20:04:02.545Z,99.90
2022-08-31T20:06:31.631Z,99.90
2022-08-31T20:09:01.471Z,99.90
2022-08-31T20:11:31.363Z,99.90
2022-08-31T20:14:00.928Z,99.90
2022-08-31T20:16:41.645Z,99.90
2022-08-31T20:19:10.097Z,99.90
2022-08-31T20:21:42.064Z,99.90
2022-08-31T20:24:14.554Z,99.90
2022-08-31T20:26:51.368Z,99.90
2022-08-31T20:29:21.246Z,99.90
2022-08-31T20:31:55.241Z,99.90
2022-08-31T20:34:27.943Z,99.90
2022-08-31T20:37:01.142Z,99.90
2022-08-31T20:39:35.270Z,99.90
2022-08-31T20:42:05.535Z,99.90
2022-08-31T20:44:37.398Z,99.90
2022-08-31T20:47:25.455Z,99.90
2022-08-31T20:49:55.708Z,99.90
2022-08-31T20:52:28.248Z,99.90
2022-08-31T20:55:02.008Z,99.90
2022-08-31T20:57:31.780Z,99.90
2022-08-31T21:00:05.635Z,99.90
2022-08-31T21:02:35.016Z,99.90
2022-08-31T21:05:36.646Z,99.90
2022-08-31T21:08:01.815Z,99.90
2022-08-31T21:10:36.811Z,99.90
2022-08-31T21:13:08.068Z,99.90
2022-08-31T21:15:36.220Z,99.90
2022-08-31T21:18:04.422Z,99.90
2022-08-31T21:20:32.769Z,99.90
2022-08-31T21:23:00.888Z,99.90
2022-08-31T21:25:29.553Z,99.90
2022-08-31T21:28:00.064Z,99.90
2022-08-31T21:30:29.407Z,99.90
2022-08-31T21:32:57.485Z,99.90
2022-08-31T21:35:26.637Z,99.90
2022-08-31T21:37:54.700Z,99.90
2022-08-31T21:40:22.856Z,99.90
2022-08-31T21:42:51.356Z,99.90
2022-08-31T21:45:21.503Z,99.90
2022-08-31T21:47:49.556Z,99.90
2022-08-31T21:50:17.862Z,99.90
2022-08-31T21:52:45.953Z,99.90
2022-08-31T21:55:15.821Z,99.90
2022-08-31T21:57:44.094Z,99.90
2022-08-31T22:00:17.086Z,99.90
2022-08-31T22:02:51.537Z,99.90
2022-08-31T22:05:19.658Z,99.90
2022-08-31T22:07:49.256Z,99.90
2022-08-31T22:10:17.643Z,99.90
2022-08-31T22:12:45.785Z,99.90
2022-08-31T22:15:16.787Z,99.90
2022-08-31T22:18:11.359Z,99.90
2022-08-31T22:20:38.646Z,99.90
2022-08-31T22:23:09.561Z,99.90
2022-08-31T22:25:38.655Z,99.90
2022-08-31T22:28:07.877Z,99.90
2022-08-31T22:30:37.341Z,99.90
2022-08-31T22:33:05.912Z,99.90
2022-08-31T22:35:40.177Z,99.90
2022-08-31T22:38:09.236Z,99.90
2022-08-31T22:40:39.526Z,99.90
2022-08-31T22:43:11.722Z,99.90
2022-08-31T22:45:47.583Z,99.90
2022-08-31T22:48:17.140Z,99.90
2022-08-31T22:50:46.693Z,99.90
2022-08-31T22:53:14.893Z,99.90
2022-08-31T22:55:44.173Z,99.90
2022-08-31T22:58:13.754Z,99.90
2022-08-31T23:00:45.438Z,99.90
2022-08-31T23:03:14.951Z,99.90
2022-08-31T23:05:43.886Z,99.90
2022-08-31T23:08:14.862Z,99.90
2022-08-31T23:10:44.156Z,99.90
2022-08-31T23:13:12.557Z,99.90
2022-08-31T23:15:41.254Z,99.90
2022-08-31T23:18:10.620Z,99.90
2022-08-31T23:20:41.924Z,99.90
2022-08-31T23:23:10.467Z,99.90
2022-08-31T23:25:40.694Z,99.90
2022-08-31T23:28:09.527Z,99.90
2022-08-31T23:30:38.100Z,99.90
2022-08-31T23:33:06.977Z,99.90
2022-08-31T23:35:35.131Z,99.90
2022-08-31T23:38:03.296Z,99.90
2022-08-31T23:40:32.039Z,99.90
2022-08-31T23:43:02.040Z,99.90
2022-08-31T23:45:30.169Z,99.90
2022-08-31T23:47:58.275Z,99.90
2022-08-31T23:50:26.326Z,99.90
2022-08-31T23:52:54.372Z,99.90
2022-08-31T23:55:26.919Z,99.90
2022-08-31T23:57:56.687Z,99.90
